sensor_id;sensor_type;location;lat;lon;timestamp;pressure;altitude;pressure_sealevel;temperature;humidity
16481;BME280;44634;54.110;12.138;2022-12-10T00:01:08;100730.09;;;0.54;100.00
16481;BME280;44634;54.110;12.138;2022-12-10T00:03:37;100741.88;;;0.44;100.00
16481;BME280;44634;54.110;12.138;2022-12-10T00:06:06;100727.38;;;0.39;100.00
16481;BME280;44634;54.110;12.138;2022-12-10T00:08:34;100714.41;;;0.56;100.00
16481;BME280;44634;54.110;12.138;2022-12-10T00:11:03;100707.16;;;0.45;100.00
16481;BME280;44634;54.110;12.138;2022-12-10T00:13:34;100707.94;;;0.82;100.00
16481;BME280;44634;54.110;12.138;2022-12-10T00:16:03;100678.72;;;0.59;100.00
16481;BME280;44634;54.110;12.138;2022-12-10T00:18:32;100698.28;;;0.49;100.00
16481;BME280;44634;54.110;12.138;2022-12-10T00:21:02;100701.44;;;0.73;100.00
16481;BME280;44634;54.110;12.138;2022-12-10T00:23:31;100699.13;;;0.67;100.00
16481;BME280;44634;54.110;12.138;2022-12-10T00:26:02;100706.56;;;0.21;100.00
16481;BME280;44634;54.110;12.138;2022-12-10T00:28:30;100719.16;;;-0.07;100.00
16481;BME280;44634;54.110;12.138;2022-12-10T00:31:05;100727.88;;;0.47;100.00
16481;BME280;44634;54.110;12.138;2022-12-10T00:33:34;100714.59;;;0.70;100.00
16481;BME280;44634;54.110;12.138;2022-12-10T00:36:02;100701.72;;;0.84;100.00
16481;BME280;44634;54.110;12.138;2022-12-10T00:38:31;100684.72;;;1.12;100.00
16481;BME280;44634;54.110;12.138;2022-12-10T00:40:59;100667.59;;;1.08;100.00
16481;BME280;44634;54.110;12.138;2022-12-10T00:43:27;100661.88;;;1.34;100.00
16481;BME280;44634;54.110;12.138;2022-12-10T00:45:55;100642.50;;;0.55;100.00
16481;BME280;44634;54.110;12.138;2022-12-10T00:48:24;100645.22;;;0.86;100.00
16481;BME280;44634;54.110;12.138;2022-12-10T00:50:57;100641.00;;;1.01;100.00
16481;BME280;44634;54.110;12.138;2022-12-10T00:53:26;100648.63;;;1.22;100.00
16481;BME280;44634;54.110;12.138;2022-12-10T00:55:54;100629.13;;;1.46;100.00
16481;BME280;44634;54.110;12.138;2022-12-10T00:58:23;100627.78;;;0.71;100.00
16481;BME280;44634;54.110;12.138;2022-12-10T01:00:51;100641.41;;;1.27;100.00
16481;BME280;44634;54.110;12.138;2022-12-10T01:03:19;100638.56;;;0.98;100.00
16481;BME280;44634;54.110;12.138;2022-12-10T01:05:48;100637.63;;;1.16;100.00
16481;BME280;44634;54.110;12.138;2022-12-10T01:08:16;100638.66;;;0.97;100.00
16481;BME280;44634;54.110;12.138;2022-12-10T01:10:45;100640.63;;;1.09;100.00
16481;BME280;44634;54.110;12.138;2022-12-10T01:13:16;100645.63;;;0.96;100.00
16481;BME280;44634;54.110;12.138;2022-12-10T01:15:43;100651.50;;;1.17;100.00
16481;BME280;44634;54.110;12.138;2022-12-10T01:18:11;100663.53;;;0.50;100.00
16481;BME280;44634;54.110;12.138;2022-12-10T01:20:39;100684.34;;;0.68;100.00
16481;BME280;44634;54.110;12.138;2022-12-10T01:23:08;100684.66;;;0.62;100.00
16481;BME280;44634;54.110;12.138;2022-12-10T01:25:36;100698.22;;;0.68;100.00
16481;BME280;44634;54.110;12.138;2022-12-10T01:28:04;100691.47;;;0.81;100.00
16481;BME280;44634;54.110;12.138;2022-12-10T01:30:32;100682.81;;;0.46;100.00
16481;BME280;44634;54.110;12.138;2022-12-10T01:33:00;100697.34;;;0.50;100.00
16481;BME280;44634;54.110;12.138;2022-12-10T01:35:28;100702.34;;;0.72;100.00
16481;BME280;44634;54.110;12.138;2022-12-10T01:37:56;100700.53;;;0.38;100.00
16481;BME280;44634;54.110;12.138;2022-12-10T01:40:25;100712.13;;;0.50;100.00
16481;BME280;44634;54.110;12.138;2022-12-10T01:42:52;100708.78;;;1.00;100.00
16481;BME280;44634;54.110;12.138;2022-12-10T01:45:25;100700.31;;;0.43;100.00
16481;BME280;44634;54.110;12.138;2022-12-10T01:47:53;100708.19;;;0.41;100.00
16481;BME280;44634;54.110;12.138;2022-12-10T01:50:21;100704.13;;;0.89;100.00
16481;BME280;44634;54.110;12.138;2022-12-10T01:52:50;100691.34;;;1.02;100.00
16481;BME280;44634;54.110;12.138;2022-12-10T01:55:44;100674.34;;;0.77;100.00
16481;BME280;44634;54.110;12.138;2022-12-10T01:58:12;100674.94;;;1.00;100.00
16481;BME280;44634;54.110;12.138;2022-12-10T02:00:45;100665.31;;;1.02;100.00
16481;BME280;44634;54.110;12.138;2022-12-10T02:03:20;100665.75;;;0.93;100.00
16481;BME280;44634;54.110;12.138;2022-12-10T02:05:54;100668.22;;;0.78;100.00
16481;BME280;44634;54.110;12.138;2022-12-10T02:08:28;100663.63;;;0.83;100.00
16481;BME280;44634;54.110;12.138;2022-12-10T02:11:13;100679.22;;;0.49;100.00
16481;BME280;44634;54.110;12.138;2022-12-10T02:13:48;100703.78;;;0.24;100.00
16481;BME280;44634;54.110;12.138;2022-12-10T02:16:27;100710.88;;;0.57;100.00
16481;BME280;44634;54.110;12.138;2022-12-10T02:19:02;100718.03;;;0.71;100.00
16481;BME280;44634;54.110;12.138;2022-12-10T02:21:37;100704.09;;;0.54;100.00
16481;BME280;44634;54.110;12.138;2022-12-10T02:24:09;100697.50;;;0.47;100.00
16481;BME280;44634;54.110;12.138;2022-12-10T02:26:43;100698.19;;;0.51;100.00
16481;BME280;44634;54.110;12.138;2022-12-10T02:29:15;100718.50;;;0.43;100.00
16481;BME280;44634;54.110;12.138;2022-12-10T02:31:52;100706.53;;;0.57;100.00
16481;BME280;44634;54.110;12.138;2022-12-10T02:34:22;100704.81;;;0.39;100.00
16481;BME280;44634;54.110;12.138;2022-12-10T02:36:52;100699.72;;;0.72;100.00
16481;BME280;44634;54.110;12.138;2022-12-10T02:39:27;100688.19;;;0.24;100.00
16481;BME280;44634;54.110;12.138;2022-12-10T02:41:58;100694.06;;;0.11;100.00
16481;BME280;44634;54.110;12.138;2022-12-10T02:44:30;100703.53;;;0.31;100.00
16481;BME280;44634;54.110;12.138;2022-12-10T02:46:59;100704.09;;;0.18;100.00
16481;BME280;44634;54.110;12.138;2022-12-10T02:49:28;100702.56;;;-0.05;100.00
16481;BME280;44634;54.110;12.138;2022-12-10T02:51:57;100709.16;;;0.21;100.00
16481;BME280;44634;54.110;12.138;2022-12-10T02:54:36;100703.47;;;0.13;100.00
16481;BME280;44634;54.110;12.138;2022-12-10T02:57:12;100704.38;;;0.12;100.00
16481;BME280;44634;54.110;12.138;2022-12-10T02:59:53;100728.50;;;0.52;100.00
16481;BME280;44634;54.110;12.138;2022-12-10T03:02:31;100696.69;;;0.28;100.00
16481;BME280;44634;54.110;12.138;2022-12-10T03:05:03;100688.56;;;0.53;100.00
16481;BME280;44634;54.110;12.138;2022-12-10T03:07:35;100676.56;;;0.68;100.00
16481;BME280;44634;54.110;12.138;2022-12-10T03:10:10;100665.28;;;0.84;100.00
16481;BME280;44634;54.110;12.138;2022-12-10T03:12:45;100649.69;;;0.50;100.00
16481;BME280;44634;54.110;12.138;2022-12-10T03:15:18;100662.09;;;0.45;100.00
16481;BME280;44634;54.110;12.138;2022-12-10T03:17:48;100662.94;;;0.80;100.00
16481;BME280;44634;54.110;12.138;2022-12-10T03:20:17;100657.31;;;0.36;100.00
16481;BME280;44634;54.110;12.138;2022-12-10T03:22:47;100657.81;;;0.78;100.00
16481;BME280;44634;54.110;12.138;2022-12-10T03:25:19;100642.00;;;0.99;100.00
16481;BME280;44634;54.110;12.138;2022-12-10T03:27:49;100643.28;;;0.74;100.00
16481;BME280;44634;54.110;12.138;2022-12-10T03:30:20;100652.75;;;0.75;100.00
16481;BME280;44634;54.110;12.138;2022-12-10T03:32:48;100655.13;;;0.80;100.00
16481;BME280;44634;54.110;12.138;2022-12-10T03:35:17;100656.13;;;0.60;100.00
16481;BME280;44634;54.110;12.138;2022-12-10T03:37:46;100678.56;;;0.26;100.00
16481;BME280;44634;54.110;12.138;2022-12-10T03:40:16;100707.03;;;0.11;100.00
16481;BME280;44634;54.110;12.138;2022-12-10T03:42:45;100716.19;;;0.19;100.00
16481;BME280;44634;54.110;12.138;2022-12-10T03:45:13;100714.22;;;0.61;100.00
16481;BME280;44634;54.110;12.138;2022-12-10T03:47:43;100706.59;;;0.56;100.00
16481;BME280;44634;54.110;12.138;2022-12-10T03:50:11;100703.94;;;0.57;100.00
16481;BME280;44634;54.110;12.138;2022-12-10T03:52:39;100706.22;;;0.46;100.00
16481;BME280;44634;54.110;12.138;2022-12-10T03:55:07;100710.47;;;0.30;100.00
16481;BME280;44634;54.110;12.138;2022-12-10T03:57:35;100714.88;;;0.47;100.00
16481;BME280;44634;54.110;12.138;2022-12-10T04:00:06;100706.34;;;0.79;100.00
16481;BME280;44634;54.110;12.138;2022-12-10T04:02:34;100715.22;;;0.58;100.00
16481;BME280;44634;54.110;12.138;2022-12-10T04:05:04;100706.97;;;0.31;100.00
16481;BME280;44634;54.110;12.138;2022-12-10T04:07:33;100714.13;;;0.26;100.00
16481;BME280;44634;54.110;12.138;2022-12-10T04:10:00;100708.44;;;0.54;100.00
16481;BME280;44634;54.110;12.138;2022-12-10T04:12:28;100712.91;;;0.16;100.00
16481;BME280;44634;54.110;12.138;2022-12-10T04:14:56;100721.00;;;0.27;100.00
16481;BME280;44634;54.110;12.138;2022-12-10T04:17:41;100722.25;;;0.37;100.00
16481;BME280;44634;54.110;12.138;2022-12-10T04:20:11;100733.88;;;0.11;100.00
16481;BME280;44634;54.110;12.138;2022-12-10T04:22:52;100733.44;;;0.39;100.00
16481;BME280;44634;54.110;12.138;2022-12-10T04:25:37;100729.94;;;0.57;100.00
16481;BME280;44634;54.110;12.138;2022-12-10T04:28:25;100697.94;;;0.02;100.00
16481;BME280;44634;54.110;12.138;2022-12-10T04:30:53;100703.78;;;0.24;100.00
16481;BME280;44634;54.110;12.138;2022-12-10T04:33:21;100695.50;;;0.52;100.00
16481;BME280;44634;54.110;12.138;2022-12-10T04:35:50;100674.84;;;0.13;100.00
16481;BME280;44634;54.110;12.138;2022-12-10T04:38:18;100682.19;;;0.05;100.00
16481;BME280;44634;54.110;12.138;2022-12-10T04:40:45;100698.44;;;-0.09;100.00
16481;BME280;44634;54.110;12.138;2022-12-10T04:43:13;100705.75;;;0.02;100.00
16481;BME280;44634;54.110;12.138;2022-12-10T04:45:41;100707.22;;;0.44;100.00
16481;BME280;44634;54.110;12.138;2022-12-10T04:48:09;100696.75;;;0.26;100.00
16481;BME280;44634;54.110;12.138;2022-12-10T04:50:36;100693.81;;;0.34;100.00
16481;BME280;44634;54.110;12.138;2022-12-10T04:53:05;100688.47;;;0.37;100.00
16481;BME280;44634;54.110;12.138;2022-12-10T04:55:33;100688.22;;;0.42;100.00
16481;BME280;44634;54.110;12.138;2022-12-10T04:58:01;100703.06;;;0.40;100.00
16481;BME280;44634;54.110;12.138;2022-12-10T05:00:29;100701.31;;;0.40;100.00
16481;BME280;44634;54.110;12.138;2022-12-10T05:02:57;100697.97;;;0.19;100.00
16481;BME280;44634;54.110;12.138;2022-12-10T05:05:24;100706.47;;;0.23;100.00
16481;BME280;44634;54.110;12.138;2022-12-10T05:07:52;100709.44;;;0.15;100.00
16481;BME280;44634;54.110;12.138;2022-12-10T05:10:21;100711.03;;;0.37;100.00
16481;BME280;44634;54.110;12.138;2022-12-10T05:12:49;100708.34;;;0.02;100.00
16481;BME280;44634;54.110;12.138;2022-12-10T05:15:17;100716.25;;;-0.01;100.00
16481;BME280;44634;54.110;12.138;2022-12-10T05:17:44;100729.59;;;0.10;100.00
16481;BME280;44634;54.110;12.138;2022-12-10T05:20:12;100731.69;;;-0.17;100.00
16481;BME280;44634;54.110;12.138;2022-12-10T05:22:40;100731.22;;;-0.06;100.00
16481;BME280;44634;54.110;12.138;2022-12-10T05:25:26;100725.38;;;0.08;100.00
16481;BME280;44634;54.110;12.138;2022-12-10T05:27:54;100729.91;;;0.04;100.00
16481;BME280;44634;54.110;12.138;2022-12-10T05:30:22;100720.00;;;-0.07;100.00
16481;BME280;44634;54.110;12.138;2022-12-10T05:32:50;100712.19;;;-0.07;100.00
16481;BME280;44634;54.110;12.138;2022-12-10T05:35:17;100721.47;;;-0.20;100.00
16481;BME280;44634;54.110;12.138;2022-12-10T05:37:45;100727.09;;;-0.10;100.00
16481;BME280;44634;54.110;12.138;2022-12-10T05:40:13;100725.94;;;-0.05;100.00
16481;BME280;44634;54.110;12.138;2022-12-10T05:42:42;100721.41;;;0.01;100.00
16481;BME280;44634;54.110;12.138;2022-12-10T05:45:10;100718.44;;;-0.11;100.00
16481;BME280;44634;54.110;12.138;2022-12-10T05:47:37;100721.09;;;0.07;100.00
16481;BME280;44634;54.110;12.138;2022-12-10T05:50:06;100715.81;;;-0.48;100.00
16481;BME280;44634;54.110;12.138;2022-12-10T05:52:34;100736.34;;;-0.42;100.00
16481;BME280;44634;54.110;12.138;2022-12-10T05:55:02;100753.81;;;-0.66;100.00
16481;BME280;44634;54.110;12.138;2022-12-10T05:57:29;100766.91;;;-0.28;100.00
16481;BME280;44634;54.110;12.138;2022-12-10T05:59:59;100757.63;;;-0.15;100.00
16481;BME280;44634;54.110;12.138;2022-12-10T06:02:26;100750.03;;;-0.01;100.00
16481;BME280;44634;54.110;12.138;2022-12-10T06:04:54;100740.50;;;0.18;100.00
16481;BME280;44634;54.110;12.138;2022-12-10T06:07:22;100723.22;;;-0.02;100.00
16481;BME280;44634;54.110;12.138;2022-12-10T06:09:50;100712.19;;;-0.07;100.00
16481;BME280;44634;54.110;12.138;2022-12-10T06:12:18;100713.59;;;0.01;100.00
16481;BME280;44634;54.110;12.138;2022-12-10T06:14:46;100716.72;;;-0.31;100.00
16481;BME280;44634;54.110;12.138;2022-12-10T06:17:15;100726.91;;;-0.45;100.00
16481;BME280;44634;54.110;12.138;2022-12-10T06:19:43;100732.31;;;0.26;100.00
16481;BME280;44634;54.110;12.138;2022-12-10T06:22:11;100723.34;;;-0.23;100.00
16481;BME280;44634;54.110;12.138;2022-12-10T06:24:39;100731.00;;;-0.20;100.00
16481;BME280;44634;54.110;12.138;2022-12-10T06:27:06;100727.91;;;0.09;100.00
16481;BME280;44634;54.110;12.138;2022-12-10T06:29:34;100716.66;;;0.27;100.00
16481;BME280;44634;54.110;12.138;2022-12-10T06:32:02;100712.06;;;-0.22;100.00
16481;BME280;44634;54.110;12.138;2022-12-10T06:34:31;100727.56;;;-0.02;100.00
16481;BME280;44634;54.110;12.138;2022-12-10T06:37:04;100720.25;;;0.06;100.00
16481;BME280;44634;54.110;12.138;2022-12-10T06:39:31;100712.47;;;0.06;100.00
16481;BME280;44634;54.110;12.138;2022-12-10T06:41:59;100719.84;;;-0.04;100.00
16481;BME280;44634;54.110;12.138;2022-12-10T06:44:27;100725.13;;;-0.24;100.00
16481;BME280;44634;54.110;12.138;2022-12-10T06:46:54;100722.59;;;-0.07;100.00
16481;BME280;44634;54.110;12.138;2022-12-10T06:49:22;100725.81;;;-0.20;100.00
16481;BME280;44634;54.110;12.138;2022-12-10T06:51:51;100730.53;;;-0.28;100.00
16481;BME280;44634;54.110;12.138;2022-12-10T06:54:19;100732.69;;;-0.19;100.00
16481;BME280;44634;54.110;12.138;2022-12-10T06:56:47;100733.06;;;-0.27;100.00
16481;BME280;44634;54.110;12.138;2022-12-10T06:59:15;100740.63;;;-0.22;100.00
16481;BME280;44634;54.110;12.138;2022-12-10T07:01:42;100745.69;;;-0.19;100.00
16481;BME280;44634;54.110;12.138;2022-12-10T07:04:10;100747.25;;;0.04;100.00
16481;BME280;44634;54.110;12.138;2022-12-10T07:06:38;100745.13;;;-0.26;100.00
16481;BME280;44634;54.110;12.138;2022-12-10T07:09:08;100739.16;;;0.10;100.00
16481;BME280;44634;54.110;12.138;2022-12-10T07:11:37;100731.00;;;-0.39;100.00
16481;BME280;44634;54.110;12.138;2022-12-10T07:14:04;100752.75;;;-0.42;100.00
16481;BME280;44634;54.110;12.138;2022-12-10T07:16:33;100755.63;;;-0.29;100.00
16481;BME280;44634;54.110;12.138;2022-12-10T07:19:01;100766.28;;;-0.54;100.00
16481;BME280;44634;54.110;12.138;2022-12-10T07:21:31;100776.06;;;-1.01;100.00
16481;BME280;44634;54.110;12.138;2022-12-10T07:24:00;100801.25;;;-0.42;100.00
16481;BME280;44634;54.110;12.138;2022-12-10T07:26:33;100793.75;;;-0.69;100.00
16481;BME280;44634;54.110;12.138;2022-12-10T07:29:03;100783.56;;;-0.14;100.00
16481;BME280;44634;54.110;12.138;2022-12-10T07:31:32;100778.59;;;-0.79;100.00
16481;BME280;44634;54.110;12.138;2022-12-10T07:34:00;100791.25;;;-0.51;100.00
16481;BME280;44634;54.110;12.138;2022-12-10T07:36:27;100785.41;;;-0.36;100.00
16481;BME280;44634;54.110;12.138;2022-12-10T07:38:55;100778.16;;;0.10;100.00
16481;BME280;44634;54.110;12.138;2022-12-10T07:41:26;100765.72;;;0.16;100.00
16481;BME280;44634;54.110;12.138;2022-12-10T07:43:55;100749.94;;;-0.37;100.00
16481;BME280;44634;54.110;12.138;2022-12-10T07:46:25;100764.41;;;-0.32;100.00
16481;BME280;44634;54.110;12.138;2022-12-10T07:48:54;100768.16;;;-0.18;100.00
16481;BME280;44634;54.110;12.138;2022-12-10T07:51:22;100761.84;;;-0.13;100.00
16481;BME280;44634;54.110;12.138;2022-12-10T07:53:51;100761.50;;;0.14;100.00
16481;BME280;44634;54.110;12.138;2022-12-10T07:56:19;100761.75;;;-0.30;100.00
16481;BME280;44634;54.110;12.138;2022-12-10T07:58:48;100772.41;;;-0.36;100.00
16481;BME280;44634;54.110;12.138;2022-12-10T08:01:20;100779.88;;;-0.28;100.00
16481;BME280;44634;54.110;12.138;2022-12-10T08:03:49;100791.81;;;-0.45;100.00
16481;BME280;44634;54.110;12.138;2022-12-10T08:06:18;100798.84;;;-0.47;100.00
16481;BME280;44634;54.110;12.138;2022-12-10T08:08:47;100798.44;;;-0.58;100.00
16481;BME280;44634;54.110;12.138;2022-12-10T08:11:17;100807.22;;;-0.40;100.00
16481;BME280;44634;54.110;12.138;2022-12-10T08:13:46;100810.72;;;-0.62;100.00
16481;BME280;44634;54.110;12.138;2022-12-10T08:16:24;100811.31;;;-0.35;100.00
16481;BME280;44634;54.110;12.138;2022-12-10T08:18:54;100805.88;;;-0.28;100.00
16481;BME280;44634;54.110;12.138;2022-12-10T08:21:23;100813.66;;;-0.28;100.00
16481;BME280;44634;54.110;12.138;2022-12-10T08:23:53;100800.91;;;-0.14;100.00
16481;BME280;44634;54.110;12.138;2022-12-10T08:26:22;100788.75;;;-0.14;100.00
16481;BME280;44634;54.110;12.138;2022-12-10T08:28:51;100783.31;;;-0.28;100.00
16481;BME280;44634;54.110;12.138;2022-12-10T08:31:20;100783.50;;;-0.12;100.00
16481;BME280;44634;54.110;12.138;2022-12-10T08:33:50;100769.44;;;0.11;100.00
16481;BME280;44634;54.110;12.138;2022-12-10T08:36:18;100771.66;;;-0.01;100.00
16481;BME280;44634;54.110;12.138;2022-12-10T08:38:46;100765.53;;;-0.37;100.00
16481;BME280;44634;54.110;12.138;2022-12-10T08:41:16;100754.31;;;-0.19;100.00
16481;BME280;44634;54.110;12.138;2022-12-10T08:43:48;100762.03;;;-0.36;100.00
16481;BME280;44634;54.110;12.138;2022-12-10T08:46:16;100773.81;;;-0.29;100.00
16481;BME280;44634;54.110;12.138;2022-12-10T08:49:00;100772.56;;;-0.39;100.00
16481;BME280;44634;54.110;12.138;2022-12-10T08:51:42;100770.72;;;0.02;100.00
16481;BME280;44634;54.110;12.138;2022-12-10T08:54:09;100763.53;;;-0.12;100.00
16481;BME280;44634;54.110;12.138;2022-12-10T08:56:37;100780.97;;;-0.34;100.00
16481;BME280;44634;54.110;12.138;2022-12-10T08:59:06;100789.41;;;-0.90;100.00
16481;BME280;44634;54.110;12.138;2022-12-10T09:01:37;100797.47;;;-0.35;100.00
16481;BME280;44634;54.110;12.138;2022-12-10T09:04:06;100784.16;;;-0.27;100.00
16481;BME280;44634;54.110;12.138;2022-12-10T09:06:34;100780.91;;;-0.72;100.00
16481;BME280;44634;54.110;12.138;2022-12-10T09:09:02;100785.66;;;-0.03;100.00
16481;BME280;44634;54.110;12.138;2022-12-10T09:11:32;100779.53;;;-0.02;100.00
16481;BME280;44634;54.110;12.138;2022-12-10T09:14:00;100785.94;;;-0.69;100.00
16481;BME280;44634;54.110;12.138;2022-12-10T09:16:30;100790.66;;;-0.58;100.00
16481;BME280;44634;54.110;12.138;2022-12-10T09:18:58;100795.59;;;-0.32;100.00
16481;BME280;44634;54.110;12.138;2022-12-10T09:21:28;100807.81;;;-0.54;100.00
16481;BME280;44634;54.110;12.138;2022-12-10T09:23:57;100806.84;;;-0.51;100.00
16481;BME280;44634;54.110;12.138;2022-12-10T09:26:25;100816.91;;;-0.84;100.00
16481;BME280;44634;54.110;12.138;2022-12-10T09:28:53;100815.94;;;-0.41;100.00
16481;BME280;44634;54.110;12.138;2022-12-10T09:31:24;100807.56;;;-0.68;100.00
16481;BME280;44634;54.110;12.138;2022-12-10T09:33:53;100824.28;;;-0.35;100.00
16481;BME280;44634;54.110;12.138;2022-12-10T09:36:22;100809.34;;;0.10;100.00
16481;BME280;44634;54.110;12.138;2022-12-10T09:38:57;100801.56;;;-0.50;100.00
16481;BME280;44634;54.110;12.138;2022-12-10T09:41:48;100819.38;;;-0.41;100.00
16481;BME280;44634;54.110;12.138;2022-12-10T09:44:40;100806.03;;;-0.94;100.00
16481;BME280;44634;54.110;12.138;2022-12-10T09:47:10;100827.94;;;-0.79;100.00
16481;BME280;44634;54.110;12.138;2022-12-10T09:49:47;100837.50;;;-0.39;100.00
16481;BME280;44634;54.110;12.138;2022-12-10T09:52:19;100833.78;;;-0.54;100.00
16481;BME280;44634;54.110;12.138;2022-12-10T09:54:53;100831.22;;;-0.96;100.00
16481;BME280;44634;54.110;12.138;2022-12-10T09:57:25;100837.16;;;-0.72;100.00
16481;BME280;44634;54.110;12.138;2022-12-10T09:59:54;100846.25;;;-0.42;100.00
16481;BME280;44634;54.110;12.138;2022-12-10T10:02:28;100839.22;;;-0.60;100.00
16481;BME280;44634;54.110;12.138;2022-12-10T10:05:06;100839.28;;;-0.62;100.00
16481;BME280;44634;54.110;12.138;2022-12-10T10:07:41;100822.69;;;-0.57;100.00
16481;BME280;44634;54.110;12.138;2022-12-10T10:10:21;100810.41;;;-0.74;100.00
16481;BME280;44634;54.110;12.138;2022-12-10T10:12:52;100815.53;;;-0.52;100.00
16481;BME280;44634;54.110;12.138;2022-12-10T10:15:25;100816.75;;;-0.81;100.00
16481;BME280;44634;54.110;12.138;2022-12-10T10:17:56;100822.00;;;-0.22;100.00
16481;BME280;44634;54.110;12.138;2022-12-10T10:20:25;100801.19;;;-0.61;100.00
16481;BME280;44634;54.110;12.138;2022-12-10T10:22:54;100795.16;;;-0.41;100.00
16481;BME280;44634;54.110;12.138;2022-12-10T10:25:24;100774.50;;;-0.05;100.00
16481;BME280;44634;54.110;12.138;2022-12-10T10:27:53;100767.13;;;-0.53;100.00
16481;BME280;44634;54.110;12.138;2022-12-10T10:30:22;100772.28;;;-0.74;100.00
16481;BME280;44634;54.110;12.138;2022-12-10T10:32:52;100783.03;;;-1.03;100.00
16481;BME280;44634;54.110;12.138;2022-12-10T10:35:23;100803.34;;;-1.13;100.00
16481;BME280;44634;54.110;12.138;2022-12-10T10:37:52;100800.81;;;-0.52;100.00
16481;BME280;44634;54.110;12.138;2022-12-10T10:40:29;100778.38;;;-0.34;100.00
16481;BME280;44634;54.110;12.138;2022-12-10T10:42:58;100767.31;;;-0.19;100.00
16481;BME280;44634;54.110;12.138;2022-12-10T10:45:36;100764.09;;;-0.24;100.00
16481;BME280;44634;54.110;12.138;2022-12-10T10:48:08;100758.78;;;0.17;100.00
16481;BME280;44634;54.110;12.138;2022-12-10T10:50:38;100761.25;;;-0.58;100.00
16481;BME280;44634;54.110;12.138;2022-12-10T10:53:39;100777.00;;;-1.04;100.00
16481;BME280;44634;54.110;12.138;2022-12-10T10:56:12;100782.09;;;-0.40;100.00
16481;BME280;44634;54.110;12.138;2022-12-10T10:58:50;100774.16;;;-0.37;100.00
16481;BME280;44634;54.110;12.138;2022-12-10T11:01:20;100768.91;;;-0.35;100.00
16481;BME280;44634;54.110;12.138;2022-12-10T11:03:54;100762.91;;;-0.56;100.00
16481;BME280;44634;54.110;12.138;2022-12-10T11:06:23;100764.41;;;-0.71;100.00
16481;BME280;44634;54.110;12.138;2022-12-10T11:08:54;100763.00;;;0.01;100.00
16481;BME280;44634;54.110;12.138;2022-12-10T11:11:32;100759.72;;;-0.63;100.00
16481;BME280;44634;54.110;12.138;2022-12-10T11:14:15;100756.91;;;-0.38;100.00
16481;BME280;44634;54.110;12.138;2022-12-10T11:16:43;100746.50;;;-0.38;100.00
16481;BME280;44634;54.110;12.138;2022-12-10T11:19:19;100737.63;;;-0.52;100.00
16481;BME280;44634;54.110;12.138;2022-12-10T11:21:48;100756.91;;;-0.19;100.00
16481;BME280;44634;54.110;12.138;2022-12-10T11:24:18;100765.06;;;-0.86;100.00
16481;BME280;44634;54.110;12.138;2022-12-10T11:26:56;100785.94;;;-0.69;100.00
16481;BME280;44634;54.110;12.138;2022-12-10T11:29:34;100788.88;;;-0.17;100.00
16481;BME280;44634;54.110;12.138;2022-12-10T11:32:23;100775.53;;;-0.48;100.00
16481;BME280;44634;54.110;12.138;2022-12-10T11:35:04;100775.69;;;-0.51;100.00
16481;BME280;44634;54.110;12.138;2022-12-10T11:37:39;100789.38;;;-0.68;100.00
16481;BME280;44634;54.110;12.138;2022-12-10T11:40:22;100795.28;;;-0.65;100.00
16481;BME280;44634;54.110;12.138;2022-12-10T11:43:11;100806.31;;;-1.22;100.00
16481;BME280;44634;54.110;12.138;2022-12-10T11:45:57;100839.97;;;-1.21;100.00
16481;BME280;44634;54.110;12.138;2022-12-10T11:48:40;100842.31;;;-0.93;100.00
16481;BME280;44634;54.110;12.138;2022-12-10T11:51:19;100832.41;;;-0.83;100.00
16481;BME280;44634;54.110;12.138;2022-12-10T11:54:07;100827.28;;;-0.64;100.00
16481;BME280;44634;54.110;12.138;2022-12-10T11:56:42;100822.78;;;-1.01;100.00
16481;BME280;44634;54.110;12.138;2022-12-10T11:59:23;100814.44;;;-0.67;100.00
16481;BME280;44634;54.110;12.138;2022-12-10T12:02:25;100795.25;;;-0.44;100.00
16481;BME280;44634;54.110;12.138;2022-12-10T12:05:10;100802.81;;;-0.58;100.00
16481;BME280;44634;54.110;12.138;2022-12-10T12:07:44;100791.31;;;-0.73;100.00
16481;BME280;44634;54.110;12.138;2022-12-10T12:10:48;100802.59;;;-1.16;100.00
16481;BME280;44634;54.110;12.138;2022-12-10T12:13:24;100808.19;;;-1.26;100.00
16481;BME280;44634;54.110;12.138;2022-12-10T12:15:58;100817.53;;;-1.22;100.00
16481;BME280;44634;54.110;12.138;2022-12-10T12:18:37;100826.31;;;-0.82;100.00
16481;BME280;44634;54.110;12.138;2022-12-10T12:21:09;100817.72;;;-1.26;100.00
16481;BME280;44634;54.110;12.138;2022-12-10T12:23:45;100840.38;;;-1.31;100.00
16481;BME280;44634;54.110;12.138;2022-12-10T12:26:18;100843.03;;;-1.33;100.00
16481;BME280;44634;54.110;12.138;2022-12-10T12:28:51;100844.78;;;-0.90;100.00
16481;BME280;44634;54.110;12.138;2022-12-10T12:31:26;100823.63;;;-1.01;100.00
16481;BME280;44634;54.110;12.138;2022-12-10T12:33:59;100818.13;;;-1.15;100.00
16481;BME280;44634;54.110;12.138;2022-12-10T12:36:30;100816.91;;;-1.06;100.00
16481;BME280;44634;54.110;12.138;2022-12-10T12:39:05;100819.28;;;-1.00;100.00
16481;BME280;44634;54.110;12.138;2022-12-10T12:41:43;100801.69;;;-0.73;100.00
16481;BME280;44634;54.110;12.138;2022-12-10T12:44:18;100778.47;;;-0.56;100.00
16481;BME280;44634;54.110;12.138;2022-12-10T12:46:50;100773.78;;;-1.09;100.00
16481;BME280;44634;54.110;12.138;2022-12-10T12:49:24;100764.31;;;-0.90;100.00
16481;BME280;44634;54.110;12.138;2022-12-10T12:51:58;100754.34;;;-0.99;100.00
16481;BME280;44634;54.110;12.138;2022-12-10T12:54:27;100742.50;;;-1.06;100.00
16481;BME280;44634;54.110;12.138;2022-12-10T12:56:59;100752.03;;;-1.27;100.00